Time;durP1;ratioP1;P1;durP2;ratioP2;P2;SDS_P1;SDS_P2;PMS_P1;PMS_P2;Temp;Humidity;BMP_temperature;BMP_pressure;BME280_temperature;BME280_humidity;BME280_pressure;Samples;Min_cycle;Max_cycle;Signal;HPM_P1;HPM_P2
2023/03/14 00:02:16;;;;;;;15.90;9.33;;;5.40;82.70;;;3.70;68.50;99381.47;10238056;28;97433;-87
2023/03/14 00:07:21;;;;;;;13.90;9.20;;;5.40;82.80;;;3.69;68.95;99369.31;10250503;28;96592;-87
2023/03/14 00:12:24;;;;;;;13.87;7.63;;;5.40;83.50;;;3.70;69.09;99376.22;10254662;28;96406;-87
2023/03/14 00:17:28;;;;;;;14.13;8.27;;;5.40;83.40;;;3.67;68.81;99358.13;10249892;28;96850;-88
2023/03/14 00:22:31;;;;;;;15.00;8.67;;;5.30;83.30;;;3.64;68.96;99350.50;10259005;28;96521;-88
2023/03/14 00:27:35;;;;;;;15.00;8.90;;;5.40;83.60;;;3.63;68.80;99339.19;10229627;28;96769;-88
2023/03/14 00:32:38;;;;;;;15.77;9.43;;;5.30;83.60;;;3.63;69.12;99331.31;10250972;28;96529;-88
2023/03/14 00:37:41;;;;;;;13.70;8.70;;;5.30;84.30;;;3.63;69.22;99323.41;10238415;28;96483;-88
2023/03/14 00:42:44;;;;;;;17.50;10.83;;;5.30;84.80;;;3.58;69.28;99317.75;10246862;28;96401;-88
2023/03/14 00:47:47;;;;;;;15.77;9.77;;;5.30;84.70;;;3.57;69.32;99315.28;10237184;28;96666;-87
2023/03/14 00:52:50;;;;;;;16.33;10.37;;;5.30;84.90;;;3.51;69.18;99300.09;10267410;28;98500;-86
2023/03/14 00:57:53;;;;;;;17.73;9.57;;;5.20;84.90;;;3.45;69.77;99298.88;10271755;28;99879;-86
2023/03/14 01:02:56;;;;;;;15.50;9.70;;;5.20;85.40;;;3.40;70.02;99293.22;10286255;28;97489;-86
2023/03/14 01:08:00;;;;;;;17.93;11.27;;;5.10;85.40;;;3.38;69.48;99289.94;10272586;28;96517;-86
2023/03/14 01:13:03;;;;;;;16.47;10.17;;;5.10;85.60;;;3.31;69.70;99280.97;10241368;28;96648;-87
2023/03/14 01:18:06;;;;;;;17.50;9.20;;;5.00;85.90;;;3.33;70.02;99276.41;10233116;28;96568;-87
2023/03/14 01:23:09;;;;;;;13.67;8.90;;;5.00;86.50;;;3.36;70.04;99270.84;10272824;28;96589;-88
2023/03/14 01:28:15;;;;;;;13.83;8.97;;;5.00;86.50;;;3.29;70.11;99244.34;10262294;28;96558;-88
2023/03/14 01:33:18;;;;;;;15.87;9.17;;;5.00;86.70;;;3.23;70.28;99244.91;10234656;28;96700;-87
2023/03/14 01:38:22;;;;;;;14.13;8.13;;;4.90;87.00;;;3.15;70.62;99240.41;10273923;28;96409;-87
2023/03/14 01:43:25;;;;;;;14.87;8.70;;;4.80;86.90;;;3.04;70.46;99234.50;10260899;28;98755;-87
2023/03/14 01:49:01;;;;;;;16.40;8.97;;;4.80;87.10;;;2.94;70.70;99216.19;10254969;28;98325;-87
2023/03/14 01:54:28;;;;;;;13.07;8.00;;;4.70;87.30;;;2.81;70.35;99203.34;10214850;28;96630;-88
2023/03/14 01:59:32;;;;;;;15.03;7.80;;;4.60;87.70;;;2.74;71.09;99209.31;10227172;28;96576;-87
2023/03/14 02:04:37;;;;;;;17.00;9.00;;;4.50;87.90;;;2.66;71.08;99195.09;10227169;28;96612;-88
2023/03/14 02:09:41;;;;;;;14.57;8.13;;;4.40;88.10;;;2.60;71.45;99174.69;10243798;28;96456;-87
2023/03/14 02:14:47;;;;;;;12.77;7.87;;;4.40;88.30;;;2.57;71.55;99161.03;10267214;28;96473;-87
2023/03/14 02:20:24;;;;;;;12.60;8.63;;;4.40;88.50;;;2.51;71.77;99169.47;10212404;28;96561;-87
2023/03/14 02:25:48;;;;;;;13.07;8.43;;;4.30;89.10;;;2.47;71.98;99165.50;10212258;28;96622;-87
2023/03/14 02:30:51;;;;;;;14.50;7.90;;;4.20;89.60;;;2.45;72.25;99155.13;10246826;28;96768;-87
2023/03/14 02:36:01;;;;;;;11.50;6.77;;;4.20;90.00;;;2.41;72.44;99141.47;10243913;28;96588;-87
2023/03/14 02:41:05;;;;;;;16.00;8.60;;;4.20;90.10;;;2.38;73.12;99135.69;10250138;28;96482;-87
2023/03/14 02:46:13;;;;;;;15.33;9.47;;;4.10;90.30;;;2.33;73.03;99133.47;10232454;28;98261;-87
2023/03/14 02:51:16;;;;;;;12.63;7.00;;;4.00;90.40;;;2.30;73.27;99141.63;10235840;28;96681;-87
2023/03/14 02:56:20;;;;;;;13.23;7.70;;;4.10;90.60;;;2.36;73.54;99125.34;10265285;28;96649;-87
2023/03/14 03:01:24;;;;;;;11.30;6.90;;;4.10;91.20;;;2.41;73.36;99109.19;10243535;28;98464;-86
2023/03/14 03:06:27;;;;;;;13.67;7.43;;;4.10;91.20;;;2.45;73.38;99104.47;10242879;28;97606;-86
2023/03/14 03:11:31;;;;;;;11.77;7.00;;;4.10;91.30;;;2.48;73.31;99105.03;10275506;28;96573;-87
2023/03/14 03:16:34;;;;;;;10.27;6.50;;;4.10;91.40;;;2.46;73.07;99095.63;10247997;28;96535;-87
2023/03/14 03:21:37;;;;;;;15.13;7.93;;;4.10;91.30;;;2.38;73.73;99114.69;10232120;28;96483;-86
2023/03/14 03:26:40;;;;;;;13.23;7.63;;;4.10;91.90;;;2.29;73.39;99107.72;10253421;28;96649;-86
2023/03/14 03:31:45;;;;;;;20.23;9.73;;;4.00;91.90;;;2.21;74.01;99097.09;10243436;28;96557;-86
2023/03/14 03:36:48;;;;;;;16.53;9.27;;;4.00;92.20;;;2.16;74.02;99094.91;10244141;28;96498;-84
2023/03/14 03:41:51;;;;;;;17.53;9.63;;;3.90;92.30;;;2.07;73.88;99082.63;10238496;28;97607;-88
2023/03/14 03:46:54;;;;;;;17.70;8.37;;;3.80;92.30;;;1.97;74.44;99094.91;10250805;28;96934;-88
2023/03/14 03:51:57;;;;;;;17.13;10.10;;;3.70;92.50;;;1.97;74.52;99082.63;10250811;28;98225;-88
2023/03/14 03:57:00;;;;;;;15.40;9.37;;;3.70;93.30;;;1.98;74.94;99080.84;10254846;28;97276;-88
2023/03/14 04:02:03;;;;;;;17.40;9.73;;;3.70;93.30;;;1.91;74.86;99072.72;10275114;28;96563;-86
2023/03/14 04:07:06;;;;;;;13.17;7.53;;;3.70;93.30;;;1.85;75.03;99074.09;10242250;28;97498;-87
2023/03/14 04:12:10;;;;;;;16.83;9.70;;;3.60;93.50;;;1.82;75.04;99074.41;10266422;28;96493;-86
2023/03/14 04:17:14;;;;;;;16.67;8.03;;;3.60;93.70;;;1.77;74.97;99083.63;10252626;28;98294;-86
2023/03/14 04:22:17;;;;;;;13.23;7.37;;;3.60;93.80;;;1.72;75.29;99070.94;10282319;28;96607;-89
2023/03/14 04:27:20;;;;;;;12.57;6.70;;;3.50;93.70;;;1.69;75.40;99060.78;10197692;28;96833;-89
2023/03/14 04:32:23;;;;;;;14.93;7.80;;;3.50;93.80;;;1.68;75.49;99053.03;10197096;28;96673;-89
2023/03/14 04:37:26;;;;;;;13.30;7.73;;;3.50;94.10;;;1.67;75.76;99060.06;10249412;28;96498;-89
2023/03/14 04:42:30;;;;;;;13.43;7.83;;;3.40;94.00;;;1.63;75.56;99065.75;10256553;28;96641;-88
2023/03/14 04:47:33;;;;;;;12.50;7.00;;;3.40;94.50;;;1.60;75.78;99066.81;10251874;28;96551;-88
2023/03/14 04:52:36;;;;;;;13.13;7.63;;;3.40;94.60;;;1.57;75.77;99069.75;10229765;28;99067;-89
2023/03/14 04:57:41;;;;;;;13.80;7.47;;;3.30;94.70;;;1.55;76.41;99058.56;10267066;28;97162;-95
2023/03/14 05:02:45;;;;;;;12.90;7.20;;;3.30;94.80;;;1.62;76.32;99064.91;10237591;28;97410;-95
2023/03/14 05:07:48;;;;;;;12.30;6.60;;;3.40;95.50;;;1.68;76.73;99038.16;10210314;28;98463;-92
2023/03/14 05:12:54;;;;;;;11.53;6.67;;;3.40;95.80;;;1.79;76.88;99045.84;10237217;28;97382;-92
2023/03/14 05:17:57;;;;;;;11.07;6.47;;;3.40;95.70;;;1.85;76.47;99037.44;10233371;28;96690;-95
2023/03/14 05:23:00;;;;;;;13.83;7.07;;;3.50;95.70;;;1.95;76.49;99044.47;10228572;28;98266;-93
2023/03/14 05:28:04;;;;;;;14.37;7.10;;;3.60;95.60;;;2.05;76.74;99027.75;10222217;28;96469;-94
2023/03/14 05:33:07;;;;;;;15.77;8.37;;;3.70;95.80;;;2.23;76.30;99032.25;10253010;28;98400;-94
2023/03/14 05:38:10;;;;;;;22.97;11.00;;;3.80;95.80;;;2.43;76.10;99023.34;10268385;28;96527;-92
2023/03/14 05:43:14;;;;;;;19.70;8.60;;;4.00;95.80;;;2.67;76.10;99020.19;10235890;28;96463;-93
2023/03/14 05:48:18;;;;;;;22.57;11.03;;;4.20;95.80;;;2.93;75.21;99015.88;10237857;28;96433;-92
2023/03/14 05:53:21;;;;;;;22.73;10.90;;;4.50;95.80;;;3.20;75.22;99011.56;10220492;28;96533;-93
2023/03/14 05:58:24;;;;;;;23.10;10.87;;;4.70;95.70;;;3.47;74.30;99008.00;10214112;28;98180;-93
2023/03/14 06:03:27;;;;;;;19.13;9.33;;;4.90;95.60;;;3.75;73.70;99017.44;10233862;28;98028;-92
2023/03/14 06:08:30;;;;;;;15.33;7.67;;;5.20;95.30;;;4.06;72.60;99008.28;10219721;28;96492;-92
2023/03/14 06:13:33;;;;;;;15.73;8.03;;;5.50;95.00;;;4.33;71.44;99005.47;10251277;28;96557;-91
2023/03/14 06:18:36;;;;;;;14.27;8.43;;;5.70;94.60;;;4.64;70.98;99013.66;10227593;28;96499;-92
2023/03/14 06:23:39;;;;;;;12.70;7.40;;;6.00;94.30;;;4.91;70.07;99007.31;10267693;28;96457;-92
2023/03/14 06:28:42;;;;;;;16.07;8.60;;;6.30;94.00;;;5.16;69.19;99002.09;10234908;28;96496;-92
2023/03/14 06:33:45;;;;;;;13.40;8.23;;;6.50;93.40;;;5.41;68.67;99003.81;10238838;28;96493;-92
2023/03/14 06:38:48;;;;;;;16.83;10.37;;;6.80;93.10;;;5.66;67.93;99014.34;10292199;28;96417;-90
2023/03/14 06:43:51;;;;;;;16.60;8.73;;;7.10;92.80;;;5.97;67.16;99001.31;10279370;28;96701;-93
2023/03/14 06:48:57;;;;;;;16.63;9.47;;;7.30;92.50;;;6.25;66.47;99009.69;10282964;28;96471;-91
2023/03/14 06:54:00;;;;;;;14.63;10.07;;;7.60;92.10;;;6.50;65.92;99005.97;10291818;28;96603;-92
2023/03/14 06:59:08;;;;;;;12.47;7.90;;;7.80;91.90;;;6.75;65.20;99005.88;10203099;28;96490;-93
2023/03/14 07:04:11;;;;;;;16.03;10.73;;;8.10;91.50;;;7.04;64.57;99010.50;10205290;28;96587;-92
2023/03/14 07:09:16;;;;;;;17.70;11.57;;;8.30;91.20;;;7.32;63.73;98998.44;10257545;28;96626;-92
2023/03/14 07:14:19;;;;;;;18.60;10.27;;;8.60;91.00;;;7.63;63.68;99000.19;10246562;28;96507;-91
2023/03/14 07:19:23;;;;;;;16.33;9.03;;;8.90;90.60;;;7.93;62.76;98993.94;10266095;28;96855;-91
2023/03/14 07:24:26;;;;;;;15.80;9.10;;;9.20;90.30;;;8.24;61.67;98999.09;10262817;28;97041;-91
2023/03/14 07:29:30;;;;;;;19.30;10.30;;;9.60;89.80;;;8.50;60.67;99003.13;10263938;28;96780;-91
2023/03/14 07:34:33;;;;;;;16.00;8.53;;;9.80;88.90;;;8.78;60.20;98990.88;10247158;28;96515;-90
2023/03/14 07:39:36;;;;;;;15.70;7.57;;;10.00;88.10;;;9.12;59.64;98978.81;10231181;28;97354;-91
2023/03/14 07:44:39;;;;;;;12.40;6.77;;;10.40;87.60;;;9.49;58.17;98963.66;10259334;28;96820;-90
2023/03/14 07:49:42;;;;;;;13.10;7.70;;;10.70;85.90;;;9.82;55.99;98961.25;10263837;28;96558;-90
2023/03/14 07:54:45;;;;;;;15.00;7.90;;;11.00;83.60;;;10.19;54.76;98952.09;10279824;28;96484;-90
2023/03/14 07:59:48;;;;;;;11.17;7.50;;;11.40;82.10;;;10.52;53.91;98946.19;10256469;28;96580;-90
2023/03/14 08:04:51;;;;;;;13.00;7.00;;;11.70;80.50;;;10.77;52.54;98923.38;10252946;28;96860;-89
2023/03/14 08:09:54;;;;;;;12.27;7.10;;;12.00;79.40;;;11.28;52.75;98916.75;10253610;28;96533;-90
2023/03/14 08:14:59;;;;;;;13.17;7.10;;;12.30;79.30;;;11.78;51.30;98920.63;10239039;28;96626;-90
2023/03/14 08:20:06;;;;;;;9.37;6.60;;;12.70;78.10;;;12.15;50.51;98913.00;10261399;28;96720;-90
2023/03/14 08:25:10;;;;;;;14.93;6.87;;;13.00;77.10;;;12.48;49.36;98895.06;10238916;28;96893;-90
2023/03/14 08:30:16;;;;;;;15.63;7.00;;;13.30;76.00;;;12.71;48.51;98897.19;10218794;28;96562;-90
2023/03/14 08:35:20;;;;;;;14.55;7.05;;;13.70;74.00;;;13.25;49.14;98889.69;10285032;28;96469;-90
2023/03/14 08:40:23;;;;;;;14.80;6.40;;;14.10;74.10;;;13.96;48.68;98886.59;10282074;28;96513;-88
2023/03/14 08:45:26;;;;;;;7.80;4.78;;;14.70;73.90;;;14.49;46.43;98883.34;10296324;28;96434;-88
2023/03/14 08:50:29;;;;;;;9.88;5.55;;;15.20;70.50;;;15.39;45.60;98863.72;10216157;28;96956;-88
2023/03/14 08:55:32;;;;;;;10.95;4.90;;;15.80;70.60;;;16.29;43.04;98855.28;10195946;28;96528;-89
2023/03/14 09:00:35;;;;;;;10.02;4.90;;;16.70;68.20;;;17.20;41.05;98836.56;10212583;28;96576;-88
2023/03/14 09:05:38;;;;;;;9.75;5.45;;;17.50;65.90;;;17.78;40.14;98820.03;10229887;28;96994;-89
2023/03/14 09:10:41;;;;;;;8.07;5.10;;;18.00;63.70;;;18.35;38.40;98806.22;10253344;28;96977;-88
2023/03/14 09:15:50;;;;;;;6.13;4.25;;;18.70;61.50;;;18.80;37.45;98788.94;10282237;28;97532;-89
2023/03/14 09:20:53;;;;;;;8.75;4.22;;;19.20;59.60;;;19.35;36.45;98786.94;10248746;28;96519;-88
2023/03/14 09:26:00;;;;;;;8.13;4.47;;;19.70;58.10;;;19.42;35.27;98782.94;10273883;28;96664;-88
2023/03/14 09:31:11;;;;;;;11.02;5.25;;;19.90;55.50;;;19.36;34.98;98783.97;10280828;28;96557;-88
2023/03/14 09:36:15;;;;;;;12.05;4.65;;;20.00;54.90;;;19.26;35.81;98773.16;10184329;28;97488;-88
2023/03/14 09:41:26;;;;;;;10.57;4.18;;;19.80;55.00;;;18.74;35.66;98768.41;10223722;28;96512;-87
2023/03/14 09:46:31;;;;;;;5.75;3.70;;;19.70;54.20;;;18.42;36.61;98747.66;10222560;28;96518;-87
2023/03/14 09:51:34;;;;;;;7.88;4.10;;;19.40;55.00;;;18.24;36.70;98731.88;10246718;28;96504;-86
2023/03/14 09:56:37;;;;;;;10.60;3.25;;;19.40;54.40;;;18.29;36.53;98739.16;10194696;28;96506;-87
2023/03/14 10:01:40;;;;;;;8.68;3.20;;;19.60;54.20;;;18.44;36.25;98740.13;10211073;28;96525;-88
2023/03/14 10:06:43;;;;;;;8.23;3.40;;;19.80;53.80;;;18.85;35.75;98719.00;10211491;28;96609;-86
2023/03/14 10:11:47;;;;;;;6.13;3.28;;;20.20;53.60;;;19.07;35.75;98718.91;10194956;28;97419;-87
2023/03/14 10:16:50;;;;;;;5.18;3.70;;;20.40;53.10;;;19.27;35.57;98718.22;10249745;28;96608;-87
2023/03/14 10:21:54;;;;;;;6.85;3.05;;;20.50;52.70;;;19.45;34.43;98707.00;10245518;28;96474;-86
2023/03/14 10:27:05;;;;;;;9.95;3.80;;;20.80;51.60;;;19.42;34.85;98699.44;10228529;28;96682;-87
2023/03/14 10:32:20;;;;;;;9.98;3.45;;;20.70;51.80;;;19.39;34.89;98697.28;10195507;28;96720;-88
2023/03/14 10:37:27;;;;;;;8.93;4.20;;;20.70;51.90;;;19.42;34.67;98696.72;10209632;28;96432;-87
2023/03/14 10:42:39;;;;;;;8.60;3.08;;;20.80;51.80;;;19.64;35.38;98668.84;10279337;28;96444;-87
2023/03/14 10:47:50;;;;;;;6.82;2.63;;;20.90;52.50;;;20.15;34.89;98655.47;10277246;28;96847;-87
2023/03/14 10:52:55;;;;;;;6.10;2.33;;;21.40;51.80;;;20.55;33.86;98644.75;10179310;28;96484;-88
2023/03/14 10:58:04;;;;;;;5.15;1.00;;;21.80;51.20;;;20.69;33.31;98638.78;10211620;28;97805;-88
2023/03/14 11:03:13;;;;;;;4.25;0.88;;;22.00;50.00;;;20.64;32.85;98622.63;10243173;28;96634;-87
2023/03/14 11:08:35;;;;;;;1.77;0.80;;;22.10;49.20;;;20.56;32.56;98616.69;10222962;28;96808;-87
2023/03/14 11:14:15;;;;;;;4.97;1.10;;;22.00;48.90;;;20.91;33.21;98598.00;10210612;28;96512;-87
2023/03/14 11:19:33;;;;;;;3.00;1.03;;;22.20;49.70;;;21.42;31.88;98598.69;10210119;28;96534;-87
2023/03/14 11:24:56;;;;;;;2.13;0.85;;;22.80;48.20;;;21.55;31.79;98581.03;10209270;28;96478;-87
2023/03/14 11:30:32;;;;;;;7.80;1.00;;;23.00;47.50;;;21.80;30.82;98561.16;10200247;28;96564;-87
2023/03/14 11:35:58;;;;;;;3.78;0.90;;;23.30;46.90;;;21.94;30.58;98545.91;10283494;28;96800;-87
2023/03/14 11:41:02;;;;;;;4.95;1.00;;;23.50;46.70;;;21.96;30.77;98553.75;10275181;28;96808;-87
2023/03/14 11:46:17;;;;;;;3.42;1.05;;;23.60;46.40;;;21.92;30.65;98545.38;10214840;28;96545;-86
2023/03/14 11:51:33;;;;;;;3.33;0.90;;;23.60;46.50;;;21.91;30.92;98546.47;10184603;28;96496;-87
2023/03/14 11:56:57;;;;;;;2.55;0.60;;;23.60;46.30;;;21.35;30.96;98538.69;10218086;28;96492;-86
2023/03/14 12:02:21;;;;;;;1.77;0.60;;;23.10;46.20;;;20.75;31.81;98521.63;10232733;28;96563;-86
2023/03/14 12:07:43;;;;;;;4.65;0.98;;;22.40;46.90;;;20.20;32.12;98523.34;10249632;28;97423;-85
2023/03/14 12:12:47;;;;;;;2.88;0.98;;;21.70;47.40;;;19.83;33.21;98518.22;10244326;28;97090;-86
2023/03/14 12:17:56;;;;;;;2.95;1.00;;;21.20;48.30;;;19.56;32.80;98516.56;10240565;28;96492;-85
2023/03/14 12:23:11;;;;;;;2.50;0.82;;;21.00;48.50;;;19.08;33.76;98504.34;10183136;28;96673;-84
2023/03/14 12:28:31;;;;;;;1.75;0.68;;;20.50;48.90;;;18.91;34.18;98501.84;10223197;28;96532;-86
2023/03/14 12:33:34;;;;;;;3.55;0.73;;;20.20;49.30;;;18.77;34.56;98495.31;10249180;28;96649;-86
2023/03/14 12:38:52;;;;;;;1.70;0.80;;;20.00;49.70;;;18.67;34.62;98491.50;10197512;28;96463;-86
2023/03/14 12:43:55;;;;;;;3.35;1.08;;;19.90;49.70;;;18.50;35.11;98490.03;10213562;28;96641;-85
2023/03/14 12:49:01;;;;;;;4.07;1.02;;;19.80;50.10;;;18.43;34.53;98482.22;10238705;28;96512;-86
2023/03/14 12:54:24;;;;;;;3.00;1.00;;;19.70;49.60;;;18.33;34.33;98482.16;10257763;28;96670;-86
2023/03/14 12:59:37;;;;;;;3.00;0.90;;;19.60;49.40;;;18.28;34.29;98472.16;10254651;28;98553;-87
2023/03/14 13:05:10;;;;;;;2.97;1.48;;;19.50;49.70;;;18.13;34.28;98464.81;10237762;28;97376;-87
2023/03/14 13:10:25;;;;;;;3.05;1.00;;;19.40;49.60;;;18.04;34.41;98471.75;10197736;28;96503;-86
2023/03/14 13:15:45;;;;;;;2.13;0.90;;;19.30;49.70;;;17.98;34.59;98475.44;10241198;28;96783;-86
2023/03/14 13:20:55;;;;;;;1.60;1.00;;;19.20;50.10;;;17.96;34.65;98474.09;10269357;28;96478;-86
2023/03/14 13:26:00;;;;;;;2.17;1.00;;;19.20;50.00;;;17.94;34.79;98470.88;10232203;28;96620;-88
2023/03/14 13:31:06;;;;;;;2.65;1.30;;;19.10;49.90;;;17.89;34.66;98474.31;10236390;28;96462;-87
2023/03/14 13:36:10;;;;;;;2.00;1.00;;;19.10;50.00;;;17.87;35.32;98479.97;10249155;28;96542;-88
2023/03/14 13:41:13;;;;;;;3.72;1.13;;;19.10;50.30;;;17.83;35.99;98488.78;10236982;28;96471;-85
2023/03/14 13:46:25;;;;;;;5.55;2.28;;;19.00;51.10;;;17.87;35.62;98487.19;10269163;28;96481;-87
2023/03/14 13:51:31;;;;;;;3.25;2.28;;;19.10;51.00;;;18.02;35.64;98494.56;10214220;28;96544;-87
2023/03/14 13:56:34;;;;;;;10.13;6.78;;;19.20;50.90;;;18.15;35.18;98491.44;10230877;28;96610;-87
2023/03/14 14:01:38;;;;;;;26.33;17.40;;;19.30;50.60;;;18.35;34.48;98501.50;10259483;28;96548;-87
2023/03/14 14:07:05;;;;;;;15.05;11.80;;;19.50;50.00;;;18.57;33.60;98490.63;10270916;28;96559;-89
2023/03/14 14:12:16;;;;;;;57.50;32.47;;;19.70;49.30;;;18.69;33.87;98499.31;10210646;28;96472;-88
2023/03/14 14:17:29;;;;;;;21.80;10.32;;;19.90;49.10;;;18.71;33.86;98486.41;10211295;28;96567;-88
2023/03/14 14:22:33;;;;;;;5.75;3.55;;;19.90;49.20;;;18.65;33.78;98485.56;10291120;28;96559;-88
2023/03/14 14:27:40;;;;;;;6.03;2.08;;;19.90;49.10;;;18.56;33.78;98479.06;10272140;28;96590;-88
2023/03/14 14:32:49;;;;;;;9.45;2.70;;;19.80;49.30;;;18.48;34.40;98473.38;10217592;28;96482;-88
2023/03/14 14:37:53;;;;;;;22.20;19.90;;;19.80;49.50;;;18.42;34.75;98478.72;10194638;28;97014;-88
2023/03/14 14:43:04;;;;;;;6.88;3.97;;;19.70;49.70;;;18.29;34.41;98476.50;10195378;28;96414;-88
2023/03/14 14:48:11;;;;;;;3.65;2.50;;;19.60;49.70;;;18.19;35.07;98473.72;10214335;28;96485;-88
2023/03/14 14:53:36;;;;;;;4.50;2.38;;;19.40;50.00;;;18.04;35.45;98481.69;10218372;28;96535;-88
2023/03/14 14:58:46;;;;;;;5.55;2.38;;;19.30;50.40;;;17.83;36.54;98478.03;10241075;28;96652;-89
2023/03/14 15:03:53;;;;;;;4.85;2.55;;;19.10;51.20;;;17.65;36.37;98477.31;10257157;28;96959;-88
2023/03/14 15:08:58;;;;;;;6.05;2.20;;;18.90;51.30;;;17.49;37.06;98475.56;10268399;28;98143;-88
2023/03/14 15:14:01;;;;;;;256.02;102.47;;;18.80;51.80;;;17.29;37.98;98475.38;10239155;28;96601;-89
2023/03/14 15:19:15;;;;;;;34.60;14.40;;;18.60;52.30;;;17.04;39.36;98486.66;10257985;28;96672;-90
2023/03/14 15:24:26;;;;;;;29.40;17.40;;;18.40;53.10;;;16.79;41.73;98504.06;10267516;28;97538;-88
2023/03/14 15:29:29;;;;;;;9.07;5.07;;;18.10;54.60;;;16.32;44.08;98517.88;10257643;28;98087;-88
2023/03/14 15:34:32;;;;;;;4.63;1.80;;;17.70;57.10;;;15.86;49.28;98574.47;10258506;28;98100;-87
2023/03/14 15:39:35;;;;;;;4.20;2.13;;;17.30;62.90;;;15.12;56.59;98569.03;10287792;28;96643;-87
2023/03/14 15:44:39;;;;;;;5.90;2.30;;;16.60;70.60;;;14.48;60.39;98589.56;10239617;28;97426;-86
2023/03/14 15:49:42;;;;;;;22.27;10.60;;;15.90;74.00;;;13.98;64.39;98609.47;10255226;28;98606;-86
2023/03/14 15:54:45;;;;;;;14.90;8.93;;;15.40;78.10;;;13.55;66.75;98610.44;10239139;28;97508;-85
2023/03/14 15:59:48;;;;;;;4.27;2.70;;;14.90;83.10;;;13.25;69.42;98612.25;10229105;28;96654;-86
2023/03/14 16:04:51;;;;;;;4.17;1.80;;;14.60;88.00;;;12.91;72.70;98613.66;10273508;28;96549;-84
2023/03/14 16:09:54;;;;;;;4.93;1.90;;;14.20;92.90;;;12.61;75.67;98627.69;10229746;28;96527;-84
2023/03/14 16:14:57;;;;;;;5.00;2.30;;;13.90;96.80;;;12.44;76.64;98626.59;10220164;28;96612;-85
2023/03/14 16:20:00;;;;;;;2.83;1.50;;;13.70;99.40;;;12.29;77.77;98610.94;10258041;28;96673;-85
2023/03/14 16:25:06;;;;;;;6.80;3.97;;;13.60;99.90;;;12.15;79.03;98606.75;10240150;28;97330;-86
2023/03/14 16:30:12;;;;;;;5.70;3.00;;;13.40;99.90;;;12.00;80.20;98613.22;10250354;28;96647;-84
2023/03/14 16:35:16;;;;;;;4.13;1.80;;;13.30;99.90;;;11.89;81.54;98619.22;10236451;28;98236;-84
2023/03/14 16:40:19;;;;;;;7.87;3.00;;;13.20;99.90;;;11.74;82.19;98616.81;10262836;28;98824;-84
2023/03/14 16:45:23;;;;;;;3.93;2.00;;;13.00;99.90;;;11.65;82.83;98627.94;10231379;28;97000;-84
2023/03/14 16:50:26;;;;;;;3.60;1.40;;;12.90;99.90;;;11.57;83.61;98636.16;10268917;28;96649;-83
2023/03/14 16:55:29;;;;;;;3.57;1.30;;;12.80;99.90;;;11.50;83.82;98647.66;10234057;28;96924;-83
2023/03/14 17:00:32;;;;;;;4.17;1.50;;;12.70;99.90;;;11.49;84.17;98661.97;10267152;28;96742;-84
2023/03/14 17:05:35;;;;;;;3.37;1.63;;;12.70;99.90;;;11.47;84.46;98674.69;10260957;28;96524;-84
2023/03/14 17:10:38;;;;;;;6.33;2.23;;;12.70;99.90;;;11.47;85.63;98684.50;10241717;28;96572;-84
2023/03/14 17:15:46;;;;;;;4.13;2.13;;;12.70;99.90;;;11.40;86.13;98676.56;10244263;28;97754;-87
2023/03/14 17:20:56;;;;;;;5.23;2.10;;;12.70;99.90;;;11.36;87.31;98688.63;10231667;28;97215;-86
2023/03/14 17:25:59;;;;;;;5.43;2.00;;;12.60;99.90;;;11.27;87.51;98692.53;10243776;28;96696;-88
2023/03/14 17:31:07;;;;;;;7.63;3.10;;;12.50;99.90;;;11.19;88.60;98688.25;10250511;28;98530;-87
2023/03/14 17:36:12;;;;;;;5.90;2.80;;;12.50;99.90;;;11.12;89.25;98681.34;10247887;28;98408;-87
2023/03/14 17:41:15;;;;;;;6.63;3.07;;;12.40;99.90;;;11.04;90.51;98700.19;10270256;28;98475;-85
2023/03/14 17:46:18;;;;;;;4.90;2.67;;;12.30;99.90;;;10.94;91.44;98705.91;10245503;28;96521;-85
2023/03/14 17:51:22;;;;;;;4.87;2.00;;;12.20;99.90;;;10.84;91.78;98706.31;10241487;28;96610;-85
2023/03/14 17:56:24;;;;;;;3.13;1.70;;;12.10;99.90;;;10.74;92.70;98710.44;10250539;28;96377;-86
2023/03/14 18:01:27;;;;;;;2.60;1.77;;;12.00;99.90;;;10.69;92.71;98716.34;10261107;28;98417;-86
2023/03/14 18:06:31;;;;;;;5.53;2.17;;;11.90;99.90;;;10.63;93.42;98715.31;10251483;28;97579;-85
2023/03/14 18:11:34;;;;;;;3.07;1.77;;;11.90;99.90;;;10.60;93.34;98718.38;10222972;28;97653;-86
2023/03/14 18:16:38;;;;;;;4.67;1.30;;;11.80;99.90;;;10.59;93.69;98708.78;10228653;28;96650;-87
2023/03/14 18:21:42;;;;;;;4.23;1.77;;;11.80;99.90;;;10.59;93.02;98708.78;10246971;28;98303;-87
2023/03/14 18:26:46;;;;;;;6.23;2.40;;;11.80;99.90;;;10.61;92.24;98712.03;10234549;28;96638;-85
2023/03/14 18:31:50;;;;;;;3.87;2.17;;;11.80;99.90;;;10.61;91.77;98713.88;10233102;28;97287;-88
2023/03/14 18:36:54;;;;;;;4.33;1.50;;;11.80;99.90;;;10.64;91.08;98719.59;10213513;28;97264;-86
2023/03/14 18:41:57;;;;;;;3.77;1.60;;;11.90;99.90;;;10.63;91.45;98710.00;10227692;28;97156;-88
2023/03/14 18:47:00;;;;;;;4.57;1.10;;;11.90;99.90;;;10.65;90.91;98704.47;10259220;28;96522;-87
2023/03/14 18:52:03;;;;;;;3.40;1.47;;;11.90;99.90;;;10.62;90.94;98697.75;10262866;28;96478;-87
2023/03/14 18:57:06;;;;;;;5.27;2.60;;;11.90;99.90;;;10.61;91.06;98695.28;10223011;28;97524;-87
2023/03/14 19:02:09;;;;;;;4.83;2.00;;;11.90;99.90;;;10.57;91.92;98691.41;10211445;28;98452;-88
2023/03/14 19:07:12;;;;;;;4.20;1.40;;;11.80;99.90;;;10.53;92.44;98698.97;10222549;28;98327;-88
2023/03/14 19:12:17;;;;;;;6.03;2.40;;;11.80;99.90;;;10.49;93.04;98678.31;10228966;28;98954;-88
2023/03/14 19:17:20;;;;;;;5.33;1.80;;;11.80;99.90;;;10.41;94.07;98668.72;10219203;28;98330;-87
2023/03/14 19:22:24;;;;;;;5.43;2.40;;;11.70;99.90;;;10.37;94.69;98678.09;10230320;28;98543;-86
2023/03/14 19:27:27;;;;;;;59.93;48.07;;;11.70;99.90;;;10.29;95.20;98700.38;10232372;28;97762;-86
2023/03/14 19:32:30;;;;;;;6.93;3.90;;;11.60;99.90;;;10.25;95.96;98699.13;10231401;28;97577;-87
2023/03/14 19:37:33;;;;;;;8.53;2.50;;;11.60;99.90;;;10.23;96.62;98684.41;10213683;28;98500;-85
2023/03/14 19:42:36;;;;;;;6.83;2.13;;;11.60;99.90;;;10.21;96.63;98687.28;10228473;28;98113;-86
2023/03/14 19:47:39;;;;;;;3.17;2.10;;;11.60;99.90;;;10.23;96.92;98684.41;10230235;28;97507;-85
2023/03/14 19:52:46;;;;;;;4.73;2.30;;;11.50;99.90;;;10.20;96.89;98677.69;10234209;28;98179;-86
2023/03/14 19:57:53;;;;;;;4.13;2.00;;;11.50;99.90;;;10.23;96.59;98666.66;10237839;28;98831;-86
2023/03/14 20:02:55;;;;;;;3.53;2.10;;;11.60;99.90;;;10.35;93.95;98667.69;10239809;28;96732;-87
2023/03/14 20:07:59;;;;;;;3.67;1.93;;;11.60;99.90;;;10.35;93.26;98686.28;10250101;28;96530;-87
2023/03/14 20:13:02;;;;;;;5.53;1.80;;;11.70;99.90;;;10.40;92.61;98699.78;10240909;28;98766;-86
2023/03/14 20:18:23;;;;;;;4.03;1.60;;;11.70;99.90;;;10.42;92.58;98700.38;10260994;28;97699;-88
2023/03/14 20:23:27;;;;;;;4.33;1.93;;;11.70;99.90;;;10.41;92.33;98698.75;10239425;28;96680;-88
2023/03/14 20:28:31;;;;;;;2.63;1.70;;;11.80;99.90;;;10.41;92.84;98706.72;10222406;28;97997;-88
2023/03/14 20:33:34;;;;;;;4.50;1.73;;;11.70;99.90;;;10.47;92.70;98720.22;10214448;28;96621;-87
2023/03/14 20:38:37;;;;;;;3.63;2.27;;;11.70;99.90;;;10.52;91.97;98733.69;10241944;28;97821;-88
2023/03/14 20:43:40;;;;;;;6.83;3.63;;;11.80;99.90;;;10.53;91.73;98743.31;10231841;28;98453;-88
2023/03/14 20:48:44;;;;;;;5.13;2.87;;;11.80;99.90;;;10.55;91.84;98743.91;10244850;28;96817;-86
2023/03/14 20:53:47;;;;;;;5.10;2.53;;;11.90;99.90;;;10.59;91.56;98753.94;10253936;28;96628;-85
2023/03/14 20:58:50;;;;;;;7.23;2.97;;;11.90;99.90;;;10.65;91.46;98763.75;10270961;28;97121;-86
2023/03/14 21:03:53;;;;;;;4.27;2.77;;;11.90;99.90;;;10.69;91.82;98777.44;10237799;28;96926;-87
2023/03/14 21:08:56;;;;;;;4.97;3.13;;;12.00;99.90;;;10.69;91.83;98780.09;10203171;28;97074;-87
2023/03/14 21:14:00;;;;;;;5.47;3.70;;;12.00;99.90;;;10.66;92.28;98789.28;10220137;28;96531;-87